Time;durP1;ratioP1;P1;durP2;ratioP2;P2;SDS_P1;SDS_P2;PMS_P1;PMS_P2;Temp;Humidity;BMP_temperature;BMP_pressure;BME280_temperature;BME280_humidity;BME280_pressure;Samples;Min_cycle;Max_cycle;Signal;HPM_P1;HPM_P2
2022/12/18 00:01:51;;;;;;;48.40;25.60;;;-1.00;46.90;;;;;;4985455;28;20655;-52
2022/12/18 00:04:22;;;;;;;53.13;25.90;;;-1.00;46.90;;;;;;4977536;28;20199;-50
2022/12/18 00:06:47;;;;;;;52.20;26.50;;;-1.10;47.50;;;;;;4989323;28;20213;-52
2022/12/18 00:09:13;;;;;;;47.87;25.03;;;-1.10;47.10;;;;;;4984018;28;20446;-56
2022/12/18 00:11:39;;;;;;;48.33;26.17;;;-1.20;47.30;;;;;;4982937;28;20203;-52
2022/12/18 00:14:04;;;;;;;41.73;24.90;;;-1.20;47.60;;;;;;4983623;28;20453;-53
2022/12/18 00:16:32;;;;;;;47.67;27.67;;;-1.20;47.80;;;;;;4988581;28;20238;-53
2022/12/18 00:18:59;;;;;;;55.30;29.63;;;-1.20;48.00;;;;;;4984008;28;20210;-52
2022/12/18 00:21:25;;;;;;;53.37;26.77;;;-1.20;48.10;;;;;;4980770;28;20453;-53
2022/12/18 00:23:51;;;;;;;50.10;29.57;;;-1.20;47.80;;;;;;4978701;28;20482;-52
2022/12/18 00:26:21;;;;;;;49.83;25.53;;;-1.10;47.60;;;;;;4988259;28;20445;-52
2022/12/18 00:28:48;;;;;;;53.10;29.00;;;-1.10;47.50;;;;;;4985161;28;20460;-54
2022/12/18 00:31:23;;;;;;;54.47;27.50;;;-1.10;47.50;;;;;;4992245;28;20458;-52
2022/12/18 00:33:49;;;;;;;51.07;25.80;;;-1.20;47.40;;;;;;4991103;28;20441;-51
2022/12/18 00:36:18;;;;;;;48.07;26.13;;;-1.20;47.60;;;;;;4990050;28;20448;-54
2022/12/18 00:38:44;;;;;;;54.37;28.47;;;-1.20;47.80;;;;;;4989231;28;20861;-51
2022/12/18 00:41:11;;;;;;;50.73;26.40;;;-1.30;47.50;;;;;;4996014;28;20519;-51
2022/12/18 00:43:37;;;;;;;51.90;27.13;;;-1.30;47.30;;;;;;4990076;28;20543;-51
2022/12/18 00:46:03;;;;;;;47.17;26.47;;;-1.30;47.00;;;;;;4989553;28;20444;-51
2022/12/18 00:48:29;;;;;;;50.50;25.83;;;-1.40;47.20;;;;;;4989461;28;20441;-51
2022/12/18 00:50:54;;;;;;;44.60;27.10;;;-1.40;47.60;;;;;;4991776;28;20240;-51
2022/12/18 00:53:20;;;;;;;49.03;26.97;;;-1.40;47.60;;;;;;4989753;28;20201;-51
2022/12/18 00:55:46;;;;;;;55.00;26.80;;;-1.40;47.70;;;;;;4990451;28;20191;-51
2022/12/18 00:58:14;;;;;;;42.63;26.03;;;-1.50;47.90;;;;;;4990411;28;21019;-51
2022/12/18 01:00:40;;;;;;;45.50;24.73;;;-1.50;48.00;;;;;;4988552;28;20457;-52
2022/12/18 01:03:06;;;;;;;49.67;26.17;;;-1.60;47.60;;;;;;4992902;28;20480;-50
2022/12/18 01:05:32;;;;;;;48.00;27.10;;;-1.60;47.50;;;;;;4985309;28;20826;-52
2022/12/18 01:07:59;;;;;;;42.50;25.07;;;-1.60;47.60;;;;;;4985188;28;20205;-53
2022/12/18 01:10:25;;;;;;;48.20;25.43;;;-1.60;47.80;;;;;;4990078;28;20888;-52
2022/12/18 01:12:51;;;;;;;40.13;23.13;;;-1.50;48.00;;;;;;4989790;28;20480;-50
2022/12/18 01:15:17;;;;;;;50.47;24.03;;;-1.50;47.90;;;;;;4987368;28;20856;-51
2022/12/18 01:17:43;;;;;;;53.27;24.90;;;-1.50;47.60;;;;;;4985569;28;20242;-51
2022/12/18 01:20:11;;;;;;;38.90;23.70;;;-1.50;47.30;;;;;;4989301;28;20453;-51
2022/12/18 01:22:36;;;;;;;38.67;23.43;;;-1.50;47.20;;;;;;4986808;28;20485;-51
2022/12/18 01:25:04;;;;;;;43.10;21.60;;;-1.60;47.10;;;;;;4990200;28;21245;-50
2022/12/18 01:27:29;;;;;;;44.33;23.97;;;-1.60;47.20;;;;;;4988832;28;20282;-52
2022/12/18 01:29:55;;;;;;;57.40;25.50;;;-1.60;47.20;;;;;;4988709;28;20528;-51
2022/12/18 01:32:21;;;;;;;46.10;23.53;;;-1.70;47.30;;;;;;4988251;28;20749;-51
2022/12/18 01:34:47;;;;;;;45.13;25.17;;;-1.70;47.40;;;;;;4989338;28;20804;-50
2022/12/18 01:37:13;;;;;;;45.40;23.83;;;-1.80;47.50;;;;;;4987843;28;20493;-51
2022/12/18 01:39:38;;;;;;;47.37;24.03;;;-1.80;47.50;;;;;;4988110;28;20206;-51
2022/12/18 01:42:11;;;;;;;40.67;23.30;;;-1.80;47.50;;;;;;4990021;28;20198;-51
2022/12/18 01:44:58;;;;;;;40.83;22.50;;;-1.80;47.60;;;;;;4984834;28;20670;-51
2022/12/18 01:47:29;;;;;;;43.40;22.17;;;-1.80;47.80;;;;;;4987881;28;20464;-50
2022/12/18 01:49:56;;;;;;;40.47;22.70;;;-1.90;48.20;;;;;;4985575;28;20453;-50
2022/12/18 01:52:25;;;;;;;39.03;22.23;;;-1.80;48.10;;;;;;4990906;28;20918;-54
2022/12/18 01:54:52;;;;;;;40.87;23.80;;;-1.80;47.90;;;;;;4990318;28;20929;-52
2022/12/18 01:57:19;;;;;;;49.17;24.17;;;-1.90;47.70;;;;;;4989679;28;20600;-54
2022/12/18 01:59:49;;;;;;;37.97;20.60;;;-1.90;47.70;;;;;;4990478;28;20587;-55
2022/12/18 02:02:16;;;;;;;44.73;24.17;;;-1.90;47.40;;;;;;4988078;28;20928;-54
2022/12/18 02:04:42;;;;;;;40.87;24.60;;;-1.80;47.40;;;;;;4986768;28;20460;-55
2022/12/18 02:07:22;;;;;;;47.23;24.47;;;-1.90;47.50;;;;;;4990143;28;20441;-53
2022/12/18 02:09:59;;;;;;;46.00;23.70;;;-1.90;47.60;;;;;;4984847;28;20193;-55
2022/12/18 02:12:34;;;;;;;41.93;21.10;;;-1.90;47.60;;;;;;4989718;28;20540;-54
2022/12/18 02:15:08;;;;;;;46.20;23.00;;;-1.90;47.50;;;;;;4989187;28;20461;-54
2022/12/18 02:18:01;;;;;;;40.57;20.80;;;-1.80;47.60;;;;;;4984276;28;20527;-55
2022/12/18 02:20:36;;;;;;;34.87;21.17;;;-1.90;47.60;;;;;;4972354;28;20446;-53
2022/12/18 02:23:27;;;;;;;43.10;20.30;;;-1.80;47.90;;;;;;4983439;28;20460;-55
2022/12/18 02:26:06;;;;;;;44.63;21.17;;;-1.90;48.00;;;;;;4989426;28;20461;-52
2022/12/18 02:28:36;;;;;;;34.40;20.97;;;-1.90;48.20;;;;;;4985930;28;20454;-55
2022/12/18 02:31:07;;;;;;;45.57;21.83;;;-1.80;48.30;;;;;;4985626;28;20456;-53
2022/12/18 02:33:34;;;;;;;48.37;22.27;;;-1.90;48.30;;;;;;4986606;28;20437;-54
2022/12/18 02:36:01;;;;;;;41.40;21.07;;;-1.80;48.30;;;;;;4989114;28;20449;-53
2022/12/18 02:38:29;;;;;;;41.30;21.77;;;-1.80;48.00;;;;;;4985306;28;20857;-54
2022/12/18 02:40:55;;;;;;;38.50;21.60;;;-1.80;47.80;;;;;;4986975;28;20463;-55
2022/12/18 02:43:21;;;;;;;34.10;20.07;;;-1.90;47.60;;;;;;4992226;28;20453;-53
2022/12/18 02:45:53;;;;;;;37.30;21.87;;;-1.90;47.70;;;;;;4991152;28;20453;-52
2022/12/18 02:48:23;;;;;;;37.80;19.43;;;-1.90;48.40;;;;;;4986787;28;20537;-55
2022/12/18 02:51:03;;;;;;;37.13;22.10;;;-1.90;47.90;;;;;;4991019;28;20456;-51
2022/12/18 02:53:36;;;;;;;39.17;19.77;;;-1.90;48.10;;;;;;4990034;28;21429;-51
2022/12/18 02:56:09;;;;;;;41.33;21.27;;;-1.80;48.10;;;;;;4989622;28;20453;-53
2022/12/18 02:59:01;;;;;;;45.10;23.83;;;-1.80;48.00;;;;;;4985748;28;20489;-50
2022/12/18 03:01:46;;;;;;;45.50;21.03;;;-1.90;48.20;;;;;;4990399;28;20514;-54
2022/12/18 03:04:27;;;;;;;53.93;25.83;;;-1.90;47.90;;;;;;4984491;28;20529;-54
2022/12/18 03:06:57;;;;;;;44.63;22.20;;;-1.90;47.80;;;;;;4986807;28;20492;-50
2022/12/18 03:09:46;;;;;;;42.40;23.30;;;-1.90;47.70;;;;;;4989058;28;20446;-51
2022/12/18 03:12:29;;;;;;;39.80;22.60;;;-2.00;47.60;;;;;;4988499;28;20456;-54
2022/12/18 03:15:11;;;;;;;32.43;17.20;;;-2.00;47.70;;;;;;4986574;28;20492;-53
2022/12/18 03:17:41;;;;;;;40.33;18.90;;;-2.00;47.80;;;;;;4985556;28;20505;-53
2022/12/18 03:20:18;;;;;;;32.20;20.30;;;-1.90;47.80;;;;;;4989637;28;20494;-54
2022/12/18 03:22:49;;;;;;;31.57;19.47;;;-1.90;47.50;;;;;;4981685;28;20458;-53
2022/12/18 03:25:17;;;;;;;39.73;19.80;;;-2.00;47.20;;;;;;4987079;28;20519;-51
2022/12/18 03:27:50;;;;;;;38.60;19.50;;;-2.00;47.50;;;;;;4986733;28;20460;-54
2022/12/18 03:30:17;;;;;;;31.83;18.03;;;-2.00;47.80;;;;;;4987983;28;20450;-52
2022/12/18 03:33:08;;;;;;;38.20;18.23;;;-1.90;48.10;;;;;;4984893;28;20461;-52
2022/12/18 03:35:38;;;;;;;41.17;19.70;;;-1.90;48.20;;;;;;4973419;28;20986;-51
2022/12/18 03:38:04;;;;;;;37.20;18.20;;;-1.90;48.30;;;;;;4983677;28;20548;-50
2022/12/18 03:40:48;;;;;;;31.27;17.80;;;-1.90;48.50;;;;;;4980734;28;20454;-50
2022/12/18 03:43:30;;;;;;;37.67;19.07;;;-1.90;48.70;;;;;;4985829;28;20198;-51
2022/12/18 03:46:05;;;;;;;33.67;17.80;;;-2.00;48.90;;;;;;4976268;28;20461;-51
2022/12/18 03:48:43;;;;;;;38.80;20.07;;;-1.90;49.00;;;;;;4985743;28;20449;-50
2022/12/18 03:51:18;;;;;;;31.00;18.47;;;-2.00;49.00;;;;;;4983661;28;20775;-50
2022/12/18 03:54:02;;;;;;;30.07;19.10;;;-1.90;49.00;;;;;;4983865;28;20480;-54
2022/12/18 03:56:31;;;;;;;29.90;16.83;;;-1.80;48.70;;;;;;4982325;28;21414;-53
2022/12/18 03:59:00;;;;;;;32.67;17.90;;;-1.70;48.40;;;;;;4981279;28;20446;-52
2022/12/18 04:01:33;;;;;;;35.10;16.70;;;-1.70;48.20;;;;;;4972710;28;20440;-51
2022/12/18 04:04:00;;;;;;;36.03;18.70;;;-1.70;48.10;;;;;;4972757;28;20536;-51
2022/12/18 04:06:27;;;;;;;31.73;16.30;;;-1.70;48.00;;;;;;4985379;28;20442;-53
2022/12/18 04:08:53;;;;;;;33.57;18.67;;;-1.80;47.90;;;;;;4986975;28;20514;-50
2022/12/18 04:11:19;;;;;;;31.70;18.90;;;-1.80;48.00;;;;;;4984790;28;22143;-52
2022/12/18 04:13:44;;;;;;;28.07;16.83;;;-1.80;48.00;;;;;;4985709;28;20191;-54
2022/12/18 04:16:10;;;;;;;27.43;16.83;;;-1.80;48.30;;;;;;4982892;28;20691;-51
2022/12/18 04:18:36;;;;;;;31.27;17.20;;;-1.80;48.60;;;;;;4982120;28;20271;-51
2022/12/18 04:21:02;;;;;;;35.40;18.23;;;-1.70;48.70;;;;;;4984315;28;20256;-52
2022/12/18 04:23:28;;;;;;;27.07;16.90;;;-1.80;48.70;;;;;;4980484;28;20199;-52
2022/12/18 04:25:54;;;;;;;29.13;16.80;;;-1.80;48.60;;;;;;4984313;28;20507;-52
2022/12/18 04:28:20;;;;;;;29.83;16.40;;;-1.80;48.50;;;;;;4982294;28;20214;-51
2022/12/18 04:30:45;;;;;;;29.20;17.50;;;-1.80;48.40;;;;;;4984641;28;20519;-50
2022/12/18 04:33:12;;;;;;;32.73;17.23;;;-1.80;48.30;;;;;;4984319;28;21269;-53
2022/12/18 04:35:39;;;;;;;32.67;16.67;;;-1.80;48.30;;;;;;4984639;28;20561;-51
2022/12/18 04:38:08;;;;;;;35.47;17.27;;;-1.80;48.20;;;;;;4986760;28;20954;-53
2022/12/18 04:40:35;;;;;;;31.47;16.37;;;-1.90;48.20;;;;;;4985861;28;20456;-50
2022/12/18 04:43:01;;;;;;;34.00;15.60;;;-1.90;48.40;;;;;;4991647;28;20443;-50
2022/12/18 04:45:27;;;;;;;30.13;16.07;;;-1.90;48.60;;;;;;4984446;28;20540;-50
2022/12/18 04:47:52;;;;;;;23.67;15.40;;;-1.90;48.70;;;;;;4981066;28;20203;-54
2022/12/18 04:50:18;;;;;;;30.83;16.67;;;-1.90;48.70;;;;;;4989695;28;20223;-50
2022/12/18 04:52:43;;;;;;;27.40;15.97;;;-1.90;48.70;;;;;;4983954;28;20673;-51
2022/12/18 04:55:09;;;;;;;31.47;16.10;;;-1.80;48.60;;;;;;4986135;28;20269;-54
2022/12/18 04:57:34;;;;;;;29.93;17.53;;;-1.80;48.90;;;;;;4988201;28;20226;-50
2022/12/18 05:00:00;;;;;;;30.37;16.47;;;-1.70;48.30;;;;;;4983200;28;20575;-51
2022/12/18 05:02:26;;;;;;;28.53;16.00;;;-1.70;47.90;;;;;;4978456;28;20262;-54
2022/12/18 05:04:51;;;;;;;26.27;17.23;;;-1.60;48.00;;;;;;4986119;28;20210;-52
2022/12/18 05:07:17;;;;;;;27.53;16.40;;;-1.60;47.80;;;;;;4986218;28;20253;-51
2022/12/18 05:09:42;;;;;;;27.30;15.10;;;-1.60;47.70;;;;;;4983572;28;20202;-52
2022/12/18 05:12:08;;;;;;;30.83;15.17;;;-1.60;47.90;;;;;;4984612;28;20217;-52
2022/12/18 05:14:33;;;;;;;24.13;14.40;;;-1.70;47.80;;;;;;4982168;28;20201;-54
2022/12/18 05:16:59;;;;;;;27.27;13.30;;;-1.80;48.20;;;;;;4987506;28;20799;-53
2022/12/18 05:19:25;;;;;;;26.60;14.47;;;-1.80;48.70;;;;;;4981089;28;20206;-53
2022/12/18 05:21:50;;;;;;;27.73;16.07;;;-1.90;48.80;;;;;;4983505;28;20202;-51
2022/12/18 05:24:16;;;;;;;33.33;17.07;;;-1.90;48.90;;;;;;4988945;28;20205;-51
2022/12/18 05:26:41;;;;;;;27.47;14.87;;;-1.90;48.90;;;;;;4986773;28;20199;-51
2022/12/18 05:29:07;;;;;;;28.80;14.97;;;-1.90;48.80;;;;;;4988119;28;20202;-53
2022/12/18 05:31:32;;;;;;;30.33;15.57;;;-1.80;49.00;;;;;;4988614;28;20187;-52
2022/12/18 05:33:58;;;;;;;26.53;15.90;;;-1.80;48.90;;;;;;4988422;28;20640;-52
2022/12/18 05:36:24;;;;;;;34.17;17.40;;;-1.80;48.80;;;;;;4989897;28;20654;-51
2022/12/18 05:38:49;;;;;;;32.43;16.40;;;-2.00;48.60;;;;;;4981056;28;20233;-54
2022/12/18 05:41:15;;;;;;;25.73;15.07;;;-2.20;48.90;;;;;;4988777;28;20844;-51
2022/12/18 05:43:41;;;;;;;28.90;15.67;;;-2.40;49.30;;;;;;4986660;28;20277;-52
2022/12/18 05:46:15;;;;;;;28.90;15.67;;;-2.30;50.00;;;;;;4990085;28;20187;-51
2022/12/18 05:48:41;;;;;;;40.23;16.53;;;-2.20;50.10;;;;;;4980835;28;20233;-55
2022/12/18 05:51:10;;;;;;;28.17;15.40;;;-2.10;49.80;;;;;;4983447;28;20825;-52
2022/12/18 05:53:37;;;;;;;28.30;15.87;;;-2.00;49.50;;;;;;4987417;28;22602;-54
2022/12/18 05:56:05;;;;;;;28.30;16.07;;;-2.00;49.30;;;;;;4990339;28;20478;-53
2022/12/18 05:58:31;;;;;;;31.87;14.53;;;-1.90;49.30;;;;;;4991098;28;20504;-51
2022/12/18 06:00:58;;;;;;;30.10;15.30;;;-1.90;48.70;;;;;;4990437;28;20442;-51
2022/12/18 06:03:23;;;;;;;27.50;15.23;;;-1.90;48.40;;;;;;4989464;28;20445;-53
2022/12/18 06:05:49;;;;;;;29.80;16.90;;;-1.90;47.70;;;;;;4983557;28;20817;-55
2022/12/18 06:08:15;;;;;;;32.00;17.37;;;-2.00;47.20;;;;;;4986821;28;20210;-51
2022/12/18 06:10:41;;;;;;;31.47;18.50;;;-2.00;47.00;;;;;;4986622;28;20226;-52
2022/12/18 06:13:08;;;;;;;32.57;16.87;;;-2.00;46.80;;;;;;4992043;28;20191;-51
2022/12/18 06:15:37;;;;;;;32.07;15.53;;;-2.00;46.80;;;;;;4982661;28;21031;-54
2022/12/18 06:18:03;;;;;;;28.37;16.20;;;-2.10;47.60;;;;;;4991953;28;21011;-51
2022/12/18 06:20:28;;;;;;;30.13;16.07;;;-2.20;47.60;;;;;;4989010;28;20449;-52
2022/12/18 06:22:54;;;;;;;29.67;16.50;;;-2.20;47.90;;;;;;4987675;28;20453;-51
2022/12/18 06:25:19;;;;;;;36.27;15.97;;;-2.10;48.20;;;;;;4982163;28;20601;-51
2022/12/18 06:27:47;;;;;;;30.10;15.30;;;-2.10;48.20;;;;;;4987993;28;20210;-51
2022/12/18 06:30:13;;;;;;;32.87;16.87;;;-2.00;48.40;;;;;;4984401;28;20675;-54
2022/12/18 06:32:39;;;;;;;32.57;16.07;;;-2.00;48.50;;;;;;4984183;28;20450;-51
2022/12/18 06:35:05;;;;;;;31.17;16.00;;;-2.00;48.90;;;;;;4978920;28;20477;-56
2022/12/18 06:37:31;;;;;;;31.77;15.43;;;-2.00;49.10;;;;;;4984177;28;20237;-53
2022/12/18 06:39:57;;;;;;;27.53;15.17;;;-2.00;49.30;;;;;;4989209;28;20448;-51
2022/12/18 06:42:23;;;;;;;30.37;14.73;;;-2.00;49.40;;;;;;4991490;28;20446;-53
2022/12/18 06:44:48;;;;;;;29.10;14.93;;;-2.00;49.50;;;;;;4991911;28;20198;-53
2022/12/18 06:47:14;;;;;;;30.73;15.10;;;-2.00;49.60;;;;;;4989860;28;20898;-51
2022/12/18 06:49:39;;;;;;;28.53;15.13;;;-2.00;49.50;;;;;;4991021;28;20830;-52
2022/12/18 06:52:05;;;;;;;35.83;17.17;;;-1.90;49.50;;;;;;4985621;28;20197;-51
2022/12/18 06:54:30;;;;;;;34.47;15.47;;;-1.90;49.30;;;;;;4989807;28;20195;-52
2022/12/18 06:56:56;;;;;;;32.90;17.30;;;-2.00;49.10;;;;;;4987111;28;20260;-49
2022/12/18 06:59:25;;;;;;;24.63;13.07;;;-2.00;49.30;;;;;;4989875;28;20194;-56
2022/12/18 07:01:51;;;;;;;31.30;15.53;;;-2.00;49.40;;;;;;4988762;28;20225;-57
2022/12/18 07:04:16;;;;;;;28.07;14.73;;;-1.90;49.40;;;;;;4986508;28;20991;-53
2022/12/18 07:06:42;;;;;;;29.13;15.00;;;-1.90;49.30;;;;;;4988339;28;20294;-52
2022/12/18 07:09:08;;;;;;;31.67;15.23;;;-1.90;49.30;;;;;;4989205;28;20646;-51
2022/12/18 07:11:33;;;;;;;32.80;16.77;;;-2.00;49.20;;;;;;4990759;28;20531;-53
2022/12/18 07:13:59;;;;;;;31.63;14.80;;;-2.00;49.20;;;;;;4987883;28;20197;-54
2022/12/18 07:16:25;;;;;;;30.40;15.57;;;-1.90;49.10;;;;;;4988345;28;20241;-50
2022/12/18 07:18:52;;;;;;;31.97;15.43;;;-1.90;48.90;;;;;;4987083;28;20292;-50
2022/12/18 07:21:19;;;;;;;30.73;16.40;;;-2.00;48.80;;;;;;4991606;28;20442;-50
2022/12/18 07:23:47;;;;;;;31.37;15.90;;;-2.10;49.00;;;;;;4991101;28;20436;-50
2022/12/18 07:26:14;;;;;;;28.30;15.77;;;-2.10;49.20;;;;;;4990446;28;20889;-51
2022/12/18 07:28:41;;;;;;;32.30;15.37;;;-2.10;49.00;;;;;;4988932;28;20602;-50
2022/12/18 07:31:08;;;;;;;29.97;16.70;;;-1.90;49.00;;;;;;4990508;28;20477;-50
2022/12/18 07:33:34;;;;;;;34.97;17.10;;;-1.70;48.70;;;;;;4990863;28;20900;-49
2022/12/18 07:36:00;;;;;;;32.10;16.97;;;-1.50;48.40;;;;;;4997744;28;20446;-50
2022/12/18 07:38:26;;;;;;;30.90;16.10;;;-1.20;48.10;;;;;;4991674;28;20300;-49
2022/12/18 07:40:51;;;;;;;34.00;16.70;;;-0.80;47.90;;;;;;4981506;28;20449;-50
2022/12/18 07:43:17;;;;;;;34.80;18.50;;;-0.50;47.30;;;;;;4992314;28;20301;-50
2022/12/18 07:45:43;;;;;;;33.50;17.87;;;-0.20;46.50;;;;;;4990507;28;20245;-51
2022/12/18 07:48:09;;;;;;;28.13;16.03;;;0.10;45.40;;;;;;4992242;28;20195;-50
2022/12/18 07:50:35;;;;;;;35.30;18.53;;;0.20;44.40;;;;;;4992347;28;20432;-52
2022/12/18 07:53:03;;;;;;;36.90;19.13;;;0.30;44.20;;;;;;4991390;28;20836;-53
2022/12/18 07:55:29;;;;;;;36.73;19.07;;;0.40;44.00;;;;;;4992161;28;20624;-53
2022/12/18 07:57:55;;;;;;;32.17;17.67;;;0.50;43.60;;;;;;4991662;28;20917;-50
2022/12/18 08:00:21;;;;;;;36.60;17.67;;;0.40;43.70;;;;;;4990557;28;20509;-51
2022/12/18 08:02:46;;;;;;;41.63;20.00;;;0.30;43.60;;;;;;4991049;28;20635;-50
2022/12/18 08:05:13;;;;;;;36.30;19.77;;;0.20;43.80;;;;;;4992199;28;20194;-50
2022/12/18 08:07:39;;;;;;;32.00;16.93;;;0.00;44.00;;;;;;4991835;28;20202;-52
2022/12/18 08:10:05;;;;;;;30.67;18.00;;;-0.20;44.60;;;;;;4992164;28;20921;-50
2022/12/18 08:12:30;;;;;;;34.87;17.03;;;-0.30;45.30;;;;;;4990395;28;20266;-52
2022/12/18 08:14:56;;;;;;;31.53;16.87;;;-0.40;46.40;;;;;;4993424;28;20437;-51
2022/12/18 08:17:21;;;;;;;34.80;20.87;;;-0.50;46.70;;;;;;4991864;28;20321;-50
2022/12/18 08:19:47;;;;;;;39.70;20.93;;;-0.60;47.40;;;;;;5005267;28;20187;-50
2022/12/18 08:22:13;;;;;;;31.50;17.67;;;-0.70;47.60;;;;;;4992037;28;20201;-50
2022/12/18 08:24:38;;;;;;;33.07;18.33;;;-0.70;47.90;;;;;;4988103;28;20251;-52
2022/12/18 08:27:04;;;;;;;36.50;18.63;;;-0.90;48.00;;;;;;4989915;28;20202;-51
2022/12/18 08:29:30;;;;;;;32.27;17.63;;;-0.90;48.30;;;;;;4991864;28;20646;-51
2022/12/18 08:31:55;;;;;;;36.10;18.47;;;-0.90;48.30;;;;;;4991891;28;20281;-51
2022/12/18 08:34:21;;;;;;;34.90;19.00;;;-0.80;48.30;;;;;;4990265;28;20857;-50
2022/12/18 08:36:47;;;;;;;35.10;17.50;;;-0.70;48.30;;;;;;4991118;28;20802;-50
2022/12/18 08:39:12;;;;;;;43.20;19.27;;;-0.60;48.50;;;;;;4996181;28;20291;-50
2022/12/18 08:41:38;;;;;;;36.90;17.33;;;-0.60;48.50;;;;;;4991988;28;20207;-51
2022/12/18 08:46:47;;;;;;;47.43;19.17;;;-0.50;48.70;;;;;;4991600;28;20233;-52
2022/12/18 08:49:13;;;;;;;39.23;20.00;;;-0.40;48.80;;;;;;4990406;28;20449;-50
2022/12/18 08:51:39;;;;;;;42.67;22.57;;;-0.40;48.90;;;;;;4993432;28;20203;-51
2022/12/18 08:54:05;;;;;;;36.30;20.90;;;-0.30;49.30;;;;;;4993259;28;20278;-50
2022/12/18 08:56:31;;;;;;;35.73;20.30;;;-0.20;49.30;;;;;;4995044;28;20434;-50
2022/12/18 08:58:57;;;;;;;37.50;19.33;;;-0.20;49.20;;;;;;4995299;28;20850;-50
2022/12/18 09:01:23;;;;;;;46.27;22.20;;;-0.10;49.50;;;;;;4994969;28;20194;-51
2022/12/18 09:03:50;;;;;;;41.40;22.27;;;0.00;49.60;;;;;;4995124;28;20422;-50
2022/12/18 09:06:20;;;;;;;47.30;21.97;;;0.10;49.40;;;;;;4995125;28;20770;-52
2022/12/18 09:08:46;;;;;;;48.80;21.90;;;0.20;49.00;;;;;;4995300;28;20421;-50
2022/12/18 09:11:23;;;;;;;45.13;22.87;;;0.30;49.20;;;;;;4995177;28;20437;-50
2022/12/18 09:13:49;;;;;;;39.33;21.70;;;0.40;48.70;;;;;;4994642;28;20654;-52
2022/12/18 09:16:15;;;;;;;42.27;21.63;;;0.50;48.60;;;;;;4994745;28;20615;-53
2022/12/18 09:18:41;;;;;;;45.87;20.50;;;0.60;48.70;;;;;;5002107;28;20833;-52
2022/12/18 09:21:18;;;;;;;39.20;22.37;;;0.70;48.90;;;;;;4999256;28;20426;-50
2022/12/18 09:23:48;;;;;;;41.97;22.17;;;0.80;49.00;;;;;;4993178;28;20194;-50
2022/12/18 09:26:14;;;;;;;37.50;20.83;;;0.90;48.90;;;;;;4994324;28;20433;-53
2022/12/18 09:28:40;;;;;;;46.40;24.17;;;1.00;48.60;;;;;;4995217;28;20430;-50
2022/12/18 09:31:07;;;;;;;37.97;21.13;;;1.10;48.40;;;;;;4994768;28;20241;-50
2022/12/18 09:33:34;;;;;;;42.23;22.87;;;1.20;48.20;;;;;;4994129;28;20598;-51
2022/12/18 09:36:02;;;;;;;41.40;23.07;;;1.30;48.10;;;;;;4994584;28;20445;-51
2022/12/18 09:38:27;;;;;;;42.17;23.97;;;1.40;48.20;;;;;;4994150;28;20509;-53
2022/12/18 09:41:05;;;;;;;40.03;23.17;;;1.30;48.80;;;;;;4991349;28;20442;-56
2022/12/18 09:43:46;;;;;;;37.97;23.10;;;1.50;49.40;;;;;;4988968;28;20732;-52
2022/12/18 09:46:19;;;;;;;41.87;23.23;;;1.50;49.50;;;;;;4984885;28;20461;-54
2022/12/18 09:48:49;;;;;;;45.33;22.30;;;1.20;51.40;;;;;;4985298;28;20445;-51
2022/12/18 09:51:22;;;;;;;46.03;23.40;;;1.40;51.40;;;;;;4991727;28;20442;-52
2022/12/18 09:53:55;;;;;;;44.27;25.73;;;1.70;51.00;;;;;;4992676;28;20933;-54
2022/12/18 09:56:24;;;;;;;43.10;23.63;;;2.30;49.60;;;;;;4993601;28;20434;-55
2022/12/18 09:58:59;;;;;;;42.50;21.17;;;2.70;48.40;;;;;;4993326;28;20516;-51
2022/12/18 10:01:27;;;;;;;39.47;22.97;;;2.80;48.60;;;;;;4991498;28;20449;-51
2022/12/18 10:03:54;;;;;;;37.53;21.30;;;2.70;49.30;;;;;;4989351;28;20812;-53
2022/12/18 10:06:31;;;;;;;39.67;24.20;;;2.50;50.60;;;;;;4985894;28;20441;-54
2022/12/18 10:09:03;;;;;;;43.87;22.80;;;2.50;51.50;;;;;;4990232;28;20460;-52
2022/12/18 10:11:49;;;;;;;41.63;20.30;;;2.70;52.10;;;;;;4990517;28;20468;-55
2022/12/18 10:14:17;;;;;;;31.50;20.67;;;2.90;52.00;;;;;;4991333;28;20476;-54
2022/12/18 10:17:14;;;;;;;38.47;21.73;;;2.70;51.90;;;;;;4990429;28;20485;-54
2022/12/18 10:19:52;;;;;;;37.27;19.77;;;2.70;52.80;;;;;;4991806;28;20532;-54
2022/12/18 10:22:27;;;;;;;33.07;17.97;;;2.70;53.10;;;;;;4990308;28;20866;-55
2022/12/18 10:25:01;;;;;;;36.13;19.30;;;2.70;54.30;;;;;;4988602;28;20464;-57
2022/12/18 10:27:27;;;;;;;34.70;16.90;;;3.10;53.90;;;;;;4985807;28;20456;-55
2022/12/18 10:29:53;;;;;;;37.03;17.10;;;3.30;53.20;;;;;;4990685;28;20524;-54
2022/12/18 10:32:22;;;;;;;33.57;17.90;;;3.30;53.10;;;;;;4988534;28;20195;-54
2022/12/18 10:34:50;;;;;;;37.07;18.63;;;3.30;53.20;;;;;;4981974;28;20474;-53
2022/12/18 10:37:22;;;;;;;32.30;16.90;;;3.10;53.10;;;;;;4986138;28;20904;-53
2022/12/18 10:40:15;;;;;;;31.10;18.70;;;3.50;53.60;;;;;;4990385;28;20457;-54
2022/12/18 10:42:41;;;;;;;33.87;17.23;;;3.60;53.40;;;;;;4989349;28;20576;-54
2022/12/18 10:45:14;;;;;;;34.40;18.10;;;3.70;52.60;;;;;;4991271;28;20975;-54
2022/12/18 10:47:48;;;;;;;30.93;16.70;;;3.80;53.30;;;;;;4987183;28;20441;-54
2022/12/18 10:50:28;;;;;;;32.10;18.03;;;3.80;52.70;;;;;;4989191;28;20448;-52
2022/12/18 10:52:59;;;;;;;35.50;18.43;;;4.20;52.60;;;;;;4989542;28;20453;-55
2022/12/18 10:55:31;;;;;;;32.10;18.13;;;4.60;51.90;;;;;;4983041;28;20979;-54
2022/12/18 10:58:32;;;;;;;34.10;18.10;;;5.00;50.80;;;;;;4991345;28;20489;-55
2022/12/18 11:01:16;;;;;;;32.00;17.57;;;5.20;50.40;;;;;;4991847;28;20948;-55
2022/12/18 11:03:55;;;;;;;32.43;16.33;;;5.50;49.20;;;;;;4989746;28;20453;-55
2022/12/18 11:06:24;;;;;;;32.17;17.43;;;5.30;49.10;;;;;;4988059;28;20462;-56
2022/12/18 11:09:01;;;;;;;39.30;20.00;;;5.10;49.70;;;;;;4990890;28;20441;-56
2022/12/18 11:11:28;;;;;;;32.93;17.07;;;5.20;49.20;;;;;;4989879;28;20456;-56
2022/12/18 11:14:06;;;;;;;32.07;18.40;;;5.40;49.70;;;;;;4990641;28;20473;-55
2022/12/18 11:16:43;;;;;;;32.83;18.03;;;5.50;48.90;;;;;;4989697;28;20482;-56
2022/12/18 11:19:24;;;;;;;30.90;17.33;;;5.30;49.00;;;;;;4989361;28;20461;-55
2022/12/18 11:21:49;;;;;;;32.60;17.67;;;4.80;49.60;;;;;;4988340;28;20453;-56
2022/12/18 11:24:35;;;;;;;33.53;18.20;;;4.50;50.60;;;;;;4989383;28;20453;-54
2022/12/18 11:27:04;;;;;;;30.20;15.93;;;4.50;52.00;;;;;;4986810;28;20310;-57
2022/12/18 11:29:36;;;;;;;36.03;17.97;;;4.50;51.90;;;;;;4984981;28;20685;-56
2022/12/18 11:32:32;;;;;;;30.93;16.50;;;4.50;51.90;;;;;;4989762;28;20862;-57
2022/12/18 11:35:27;;;;;;;33.40;17.73;;;4.40;51.90;;;;;;4982840;28;20457;-57
2022/12/18 11:38:11;;;;;;;34.40;17.30;;;4.20;52.60;;;;;;4985651;28;20489;-55
2022/12/18 11:40:39;;;;;;;35.17;18.07;;;4.00;53.20;;;;;;4987384;28;20469;-56
2022/12/18 11:43:31;;;;;;;34.90;16.80;;;4.10;53.50;;;;;;4982633;28;20441;-55
2022/12/18 11:46:08;;;;;;;33.97;16.67;;;4.30;52.60;;;;;;4988383;28;20536;-56
2022/12/18 11:48:41;;;;;;;33.40;16.73;;;4.20;53.40;;;;;;4988789;28;20449;-56
2022/12/18 11:51:17;;;;;;;32.00;17.90;;;4.10;53.10;;;;;;4988217;28;20445;-57
2022/12/18 11:53:42;;;;;;;32.93;17.10;;;3.90;53.40;;;;;;4989210;28;20461;-57
2022/12/18 11:56:17;;;;;;;38.13;18.80;;;4.10;53.30;;;;;;4990802;28;20452;-59
2022/12/18 11:58:57;;;;;;;31.10;16.60;;;4.20;53.10;;;;;;4984637;28;20593;-57
2022/12/18 12:01:34;;;;;;;39.13;18.07;;;4.40;53.10;;;;;;4989905;28;20809;-58
2022/12/18 12:04:09;;;;;;;32.10;17.00;;;4.30;52.40;;;;;;4985824;28;20464;-57
2022/12/18 12:06:40;;;;;;;29.90;16.17;;;4.20;53.10;;;;;;4981041;28;20611;-58
2022/12/18 12:09:51;;;;;;;34.97;14.80;;;4.30;53.20;;;;;;4987672;28;20480;-57
2022/12/18 12:12:47;;;;;;;27.87;15.10;;;4.10;52.90;;;;;;4954772;28;20586;-58
2022/12/18 12:15:18;;;;;;;31.57;16.70;;;3.90;54.10;;;;;;4988992;28;20450;-58
2022/12/18 12:17:56;;;;;;;30.47;15.90;;;4.10;53.90;;;;;;4990685;28;20494;-58
2022/12/18 12:20:33;;;;;;;36.03;17.43;;;4.00;53.20;;;;;;4980208;28;20520;-58
2022/12/18 12:23:04;;;;;;;28.90;14.27;;;4.00;53.80;;;;;;4989921;28;20445;-56
2022/12/18 12:25:44;;;;;;;32.10;16.50;;;4.10;53.60;;;;;;4992967;28;20524;-58
2022/12/18 12:28:30;;;;;;;32.00;16.00;;;4.10;53.30;;;;;;4993743;28;20832;-58
2022/12/18 12:31:23;;;;;;;29.00;17.00;;;4.10;53.50;;;;;;4995953;28;20488;-58
2022/12/18 12:34:06;;;;;;;34.57;17.73;;;4.30;53.20;;;;;;4986756;28;20445;-58
2022/12/18 12:37:07;;;;;;;27.97;16.50;;;4.10;53.10;;;;;;4994074;28;20964;-58
2022/12/18 12:39:40;;;;;;;29.07;15.63;;;4.00;53.20;;;;;;4974903;28;20895;-59
2022/12/18 12:45:06;;;;;;;28.73;15.40;;;4.20;53.40;;;;;;4986814;28;20488;-58
2022/12/18 12:47:40;;;;;;;33.67;16.30;;;4.20;53.20;;;;;;4993497;28;20453;-58
2022/12/18 12:50:14;;;;;;;34.63;17.67;;;4.30;53.50;;;;;;4995773;28;20433;-58
2022/12/18 12:52:46;;;;;;;29.63;17.80;;;4.30;53.00;;;;;;4993693;28;20533;-58